createdAt,value
2024-01-09T00:00:24.170Z,4.07
2024-01-09T00:02:53.219Z,4.05
2024-01-09T00:05:21.683Z,4.03
2024-01-09T00:07:50.038Z,3.98
2024-01-09T00:10:18.821Z,3.97
2024-01-09T00:12:47.130Z,3.95
2024-01-09T00:15:17.386Z,3.93
2024-01-09T00:17:46.329Z,3.94
2024-01-09T00:20:15.945Z,3.94
2024-01-09T00:22:44.865Z,3.92
2024-01-09T00:25:13.619Z,3.90
2024-01-09T00:27:42.385Z,3.88
2024-01-09T00:30:12.483Z,3.88
2024-01-09T00:32:48.341Z,3.87
2024-01-09T00:35:17.547Z,3.86
2024-01-09T00:37:46.365Z,3.86
2024-01-09T00:40:15.073Z,3.87
2024-01-09T00:42:43.435Z,3.87
2024-01-09T00:45:12.788Z,3.88
2024-01-09T00:47:42.881Z,3.92
2024-01-09T00:50:12.063Z,3.96
2024-01-09T00:52:40.567Z,3.97
2024-01-09T00:55:09.640Z,3.97
2024-01-09T00:57:39.058Z,3.96
2024-01-09T01:00:09.368Z,3.96
2024-01-09T01:02:37.887Z,3.95
2024-01-09T01:05:08.971Z,3.97
2024-01-09T01:07:37.461Z,3.98
2024-01-09T01:10:06.840Z,3.99
2024-01-09T01:12:37.392Z,3.97
2024-01-09T01:15:07.896Z,3.95
2024-01-09T01:17:37.330Z,3.93
2024-01-09T01:20:09.197Z,3.94
2024-01-09T01:22:37.944Z,3.94
2024-01-09T01:25:07.965Z,3.91
2024-01-09T01:27:36.364Z,3.92
2024-01-09T01:30:06.058Z,3.91
2024-01-09T01:32:34.664Z,3.89
2024-01-09T01:35:03.375Z,3.91
2024-01-09T01:37:33.295Z,3.90
2024-01-09T01:40:01.794Z,3.91
2024-01-09T01:42:30.198Z,3.90
2024-01-09T01:44:59.565Z,3.90
2024-01-09T01:47:28.340Z,3.89
2024-01-09T01:49:57.521Z,3.87
2024-01-09T01:52:26.459Z,3.82
2024-01-09T01:54:56.461Z,3.79
2024-01-09T01:57:24.908Z,3.78
2024-01-09T01:59:55.035Z,3.76
2024-01-09T02:02:24.188Z,3.76
2024-01-09T02:04:52.802Z,3.76
2024-01-09T02:07:22.792Z,3.78
2024-01-09T02:09:54.303Z,3.77
2024-01-09T02:12:24.657Z,3.78
2024-01-09T02:14:53.189Z,3.75
2024-01-09T02:17:21.748Z,3.74
2024-01-09T02:19:50.219Z,3.72
2024-01-09T02:22:18.594Z,3.70
2024-01-09T02:24:47.042Z,3.70
2024-01-09T02:27:22.544Z,3.71
2024-01-09T02:29:53.242Z,3.69
2024-01-09T02:32:23.197Z,3.66
2024-01-09T02:34:53.135Z,3.66
2024-01-09T02:37:21.790Z,3.66
2024-01-09T02:39:50.547Z,3.65
2024-01-09T02:42:19.072Z,3.67
2024-01-09T02:44:47.667Z,3.67
2024-01-09T02:47:17.833Z,3.66
2024-01-09T02:49:46.441Z,3.67
2024-01-09T02:52:14.894Z,3.66
2024-01-09T02:54:43.333Z,3.68
2024-01-09T02:57:12.258Z,3.66
2024-01-09T02:59:41.109Z,3.65
2024-01-09T03:02:09.645Z,3.65
2024-01-09T03:04:39.591Z,3.66
2024-01-09T03:07:08.394Z,3.65
2024-01-09T03:09:38.859Z,3.66
2024-01-09T03:12:08.266Z,3.66
2024-01-09T03:14:39.648Z,3.66
2024-01-09T03:17:08.115Z,3.64
2024-01-09T03:19:37.972Z,3.65
2024-01-09T03:22:06.625Z,3.64
2024-01-09T03:24:35.342Z,3.64
2024-01-09T03:27:04.068Z,3.63
2024-01-09T03:29:32.672Z,3.62
2024-01-09T03:32:01.858Z,3.61
2024-01-09T03:34:30.463Z,3.60
2024-01-09T03:37:00.244Z,3.59
2024-01-09T03:39:28.654Z,3.59
2024-01-09T03:41:57.158Z,3.56
2024-01-09T03:44:26.048Z,3.53
2024-01-09T03:46:54.584Z,3.54
2024-01-09T03:49:23.324Z,3.55
2024-01-09T03:51:51.963Z,3.57
2024-01-09T03:54:21.995Z,3.56
2024-01-09T03:56:50.733Z,3.54
2024-01-09T03:59:19.568Z,3.48
2024-01-09T04:01:48.261Z,3.47
2024-01-09T04:04:16.898Z,3.45
2024-01-09T04:06:45.596Z,3.43
2024-01-09T04:09:14.571Z,3.45
2024-01-09T04:11:46.108Z,3.43
2024-01-09T04:14:15.595Z,3.43
2024-01-09T04:16:48.021Z,3.43
2024-01-09T04:19:16.503Z,3.43
2024-01-09T04:21:45.225Z,3.39
2024-01-09T04:24:13.740Z,3.39
2024-01-09T04:26:42.513Z,3.38
2024-01-09T04:29:12.700Z,3.40
2024-01-09T04:31:41.165Z,3.41
2024-01-09T04:34:10.386Z,3.42
2024-01-09T04:36:38.805Z,3.44
2024-01-09T04:39:07.242Z,3.46
2024-01-09T04:41:35.751Z,3.48
2024-01-09T04:44:04.851Z,3.47
2024-01-09T04:46:34.732Z,3.49
2024-01-09T04:49:05.137Z,3.51
2024-01-09T04:51:33.643Z,3.51
2024-01-09T04:54:02.063Z,3.50
2024-01-09T04:56:30.715Z,3.51
2024-01-09T04:59:00.238Z,3.51
2024-01-09T05:01:29.489Z,3.50
2024-01-09T05:03:59.262Z,3.51
2024-01-09T05:06:28.112Z,3.51
2024-01-09T05:08:56.607Z,3.47
2024-01-09T05:11:25.142Z,3.46
2024-01-09T05:13:53.664Z,3.45
2024-01-09T05:16:22.159Z,3.46
2024-01-09T05:18:50.937Z,3.46
2024-01-09T05:21:20.981Z,3.47
2024-01-09T05:23:49.565Z,3.42
2024-01-09T05:26:19.934Z,3.43
2024-01-09T05:28:48.996Z,3.43
2024-01-09T05:31:17.506Z,3.44
2024-01-09T05:33:46.689Z,3.44
2024-01-09T05:36:19.307Z,3.43
2024-01-09T05:38:49.213Z,3.41
2024-01-09T05:41:21.899Z,3.40
2024-01-09T05:43:50.627Z,3.39
2024-01-09T05:46:19.546Z,3.37
2024-01-09T05:48:48.405Z,3.35
2024-01-09T05:51:17.289Z,3.33
2024-01-09T05:53:51.432Z,3.32
2024-01-09T05:56:20.504Z,3.30
2024-01-09T05:58:49.037Z,3.30
2024-01-09T06:01:18.268Z,3.30
2024-01-09T06:03:46.835Z,3.31
2024-01-09T06:06:15.537Z,3.28
2024-01-09T06:08:44.590Z,3.31
2024-01-09T06:11:14.493Z,3.28
2024-01-09T06:13:43.015Z,3.29
2024-01-09T06:16:12.099Z,3.30
2024-01-09T06:18:40.657Z,3.28
2024-01-09T06:21:09.519Z,3.25
2024-01-09T06:23:37.929Z,3.26
2024-01-09T06:26:06.479Z,3.24
2024-01-09T06:28:37.052Z,3.24
2024-01-09T06:31:05.890Z,3.22
2024-01-09T06:33:34.593Z,3.21
2024-01-09T06:36:03.155Z,3.20
2024-01-09T06:38:31.610Z,3.20
2024-01-09T06:41:01.115Z,3.19
2024-01-09T06:43:32.191Z,3.19
2024-01-09T06:46:02.105Z,3.17
2024-01-09T06:48:33.565Z,3.17
2024-01-09T06:51:02.191Z,3.17
2024-01-09T06:53:32.581Z,3.18
2024-01-09T06:56:01.333Z,3.14
2024-01-09T06:58:29.663Z,3.12
2024-01-09T07:00:58.572Z,3.12
2024-01-09T07:03:28.428Z,3.13
2024-01-09T07:05:56.884Z,3.12
2024-01-09T07:08:25.488Z,3.12
2024-01-09T07:10:54.257Z,3.13
2024-01-09T07:13:23.194Z,3.12
2024-01-09T07:15:52.135Z,3.12
2024-01-09T07:18:20.862Z,3.12
2024-01-09T07:20:51.007Z,3.10
2024-01-09T07:23:20.720Z,3.06
2024-01-09T07:25:49.811Z,3.06
2024-01-09T07:28:18.367Z,3.04
2024-01-09T07:30:47.183Z,3.02
2024-01-09T07:33:15.937Z,3.03
2024-01-09T07:35:44.513Z,3.03
2024-01-09T07:38:14.510Z,3.02
2024-01-09T07:40:43.515Z,2.98
2024-01-09T07:43:12.028Z,2.96
2024-01-09T07:45:40.322Z,2.95
2024-01-09T07:48:09.413Z,2.91
2024-01-09T07:50:38.064Z,2.91
2024-01-09T07:53:06.535Z,2.89
2024-01-09T07:55:36.496Z,2.85
2024-01-09T07:58:07.135Z,2.83
2024-01-09T08:00:35.659Z,2.84
2024-01-09T08:03:07.213Z,2.84
2024-01-09T08:05:36.393Z,2.89
2024-01-09T08:08:05.788Z,2.88
2024-01-09T08:10:35.649Z,2.88
2024-01-09T08:13:04.299Z,2.87
2024-01-09T08:15:32.661Z,2.88
2024-01-09T08:18:01.175Z,2.89
2024-01-09T08:20:30.227Z,2.89
2024-01-09T08:22:59.157Z,2.89
2024-01-09T08:25:27.992Z,2.87
2024-01-09T08:27:57.938Z,2.87
2024-01-09T08:30:26.423Z,2.89
2024-01-09T08:32:55.028Z,2.90
2024-01-09T08:35:23.664Z,2.92
2024-01-09T08:37:52.097Z,2.91
2024-01-09T08:40:20.630Z,2.94
2024-01-09T08:42:49.060Z,2.95
2024-01-09T08:45:19.937Z,2.96
2024-01-09T08:47:48.389Z,2.94
2024-01-09T08:50:17.190Z,2.93
2024-01-09T08:52:46.336Z,2.95
2024-01-09T08:55:14.716Z,2.96
2024-01-09T08:57:43.758Z,2.96
2024-01-09T09:00:14.422Z,2.96
2024-01-09T09:02:44.472Z,2.98
2024-01-09T09:05:13.311Z,2.98
2024-01-09T09:07:41.777Z,2.99
2024-01-09T09:10:10.349Z,3.00
2024-01-09T09:12:38.943Z,2.99
2024-01-09T09:15:08.426Z,2.97
2024-01-09T09:17:37.057Z,2.98
2024-01-09T09:20:08.607Z,2.98
2024-01-09T09:22:37.167Z,2.96
2024-01-09T09:25:06.983Z,2.95
2024-01-09T09:27:35.867Z,2.93
2024-01-09T09:30:06.336Z,2.95
2024-01-09T09:32:35.304Z,2.96
2024-01-09T09:35:05.018Z,2.97
2024-01-09T09:37:35.858Z,3.02
2024-01-09T09:40:04.766Z,3.07
2024-01-09T09:42:33.791Z,3.12
2024-01-09T09:45:03.895Z,3.13
2024-01-09T09:47:34.025Z,3.13
2024-01-09T09:50:02.590Z,3.14
2024-01-09T09:52:34.706Z,3.15
2024-01-09T09:55:03.275Z,3.16
2024-01-09T09:57:31.844Z,3.17
2024-01-09T10:00:00.468Z,3.17
2024-01-09T10:02:31.775Z,3.20
2024-01-09T10:05:11.509Z,3.22
2024-01-09T10:07:49.706Z,3.24
2024-01-09T10:10:21.991Z,3.26
2024-01-09T10:12:50.978Z,3.29
2024-01-09T10:15:19.618Z,3.31
2024-01-09T10:17:49.079Z,3.32
2024-01-09T10:20:17.685Z,3.35
2024-01-09T10:22:49.217Z,3.37
2024-01-09T10:25:19.127Z,3.38
2024-01-09T10:27:48.525Z,3.38
2024-01-09T10:30:17.645Z,3.38
2024-01-09T10:32:48.466Z,3.39
2024-01-09T10:35:16.883Z,3.42
2024-01-09T10:37:47.455Z,3.45
2024-01-09T10:40:16.674Z,3.46
2024-01-09T10:42:49.036Z,3.49
2024-01-09T10:45:20.528Z,3.48
2024-01-09T10:47:50.501Z,3.47
2024-01-09T10:50:20.380Z,3.49
2024-01-09T10:52:51.861Z,3.53
2024-01-09T10:55:22.829Z,3.57
2024-01-09T10:57:52.146Z,3.60
2024-01-09T11:00:21.619Z,3.63
2024-01-09T11:02:50.300Z,3.65
2024-01-09T11:05:19.290Z,3.69
2024-01-09T11:07:53.347Z,3.72
2024-01-09T11:10:23.644Z,3.74
2024-01-09T11:12:54.558Z,3.76
2024-01-09T11:15:27.893Z,3.76
2024-01-09T11:18:03.192Z,3.76
2024-01-09T11:20:32.866Z,3.75
2024-01-09T11:23:02.780Z,3.77
2024-01-09T11:25:32.383Z,3.79
2024-01-09T11:28:01.774Z,3.80
2024-01-09T11:30:36.929Z,3.81
2024-01-09T11:33:30.211Z,3.82
2024-01-09T11:36:06.122Z,3.84
2024-01-09T11:38:36.551Z,3.88
2024-01-09T11:41:06.491Z,3.91
2024-01-09T11:44:02.884Z,3.97
2024-01-09T11:46:35.289Z,3.98
2024-01-09T11:49:06.135Z,4.03
2024-01-09T11:51:36.418Z,4.06
2024-01-09T11:54:10.139Z,4.09
2024-01-09T11:56:39.689Z,4.11
2024-01-09T11:59:08.225Z,4.15
2024-01-09T12:01:37.139Z,4.16
2024-01-09T12:04:06.325Z,4.19
2024-01-09T12:06:34.722Z,4.21
2024-01-09T12:09:03.860Z,4.22
2024-01-09T12:11:33.963Z,4.27
2024-01-09T12:14:02.961Z,4.28
2024-01-09T12:16:33.780Z,4.32
2024-01-09T12:19:03.750Z,4.34
2024-01-09T12:21:34.903Z,4.38
2024-01-09T12:26:40.041Z,4.40
2024-01-09T12:29:09.100Z,4.40
2024-01-09T12:31:37.649Z,4.41
2024-01-09T12:34:06.602Z,4.43
2024-01-09T12:36:35.756Z,4.45
2024-01-09T12:39:04.689Z,4.47
2024-01-09T12:41:33.385Z,4.49
2024-01-09T12:44:10.840Z,4.50
2024-01-09T12:46:39.419Z,4.50
2024-01-09T12:49:10.078Z,4.53
2024-01-09T12:51:39.011Z,4.55
2024-01-09T12:54:07.746Z,4.54
2024-01-09T12:56:36.619Z,4.56
2024-01-09T12:59:05.307Z,4.59
2024-01-09T13:01:35.216Z,4.60
2024-01-09T13:04:03.686Z,4.64
2024-01-09T13:06:32.277Z,4.66
2024-01-09T13:09:00.914Z,4.67
2024-01-09T13:11:29.423Z,4.69
2024-01-09T13:14:00.215Z,4.69
2024-01-09T13:16:28.662Z,4.71
2024-01-09T13:18:58.639Z,4.74
2024-01-09T13:21:27.212Z,4.75
2024-01-09T13:26:24.837Z,4.81
2024-01-09T13:31:24.895Z,4.80
2024-01-09T13:33:53.849Z,4.80
2024-01-09T13:36:24.409Z,4.82
2024-01-09T13:38:53.005Z,4.82
2024-01-09T13:41:21.640Z,4.84
2024-01-09T13:43:50.373Z,4.82
2024-01-09T13:46:19.156Z,4.82
2024-01-09T13:48:48.271Z,4.81
2024-01-09T13:53:52.913Z,4.82
2024-01-09T13:56:21.505Z,4.85
2024-01-09T13:58:50.135Z,4.88
2024-01-09T14:01:27.169Z,4.90
2024-01-09T14:04:03.974Z,4.92
2024-01-09T14:06:32.745Z,4.93
2024-01-09T14:09:02.844Z,4.95
2024-01-09T14:11:31.732Z,4.98
2024-01-09T14:14:00.608Z,4.99
2024-01-09T14:16:29.412Z,5.00
2024-01-09T14:18:58.910Z,5.00
2024-01-09T14:21:27.610Z,5.02
2024-01-09T14:23:56.026Z,5.01
2024-01-09T14:26:26.842Z,5.01
2024-01-09T14:28:56.551Z,4.99
2024-01-09T14:31:25.293Z,4.99
2024-01-09T14:33:53.852Z,4.97
2024-01-09T14:36:22.575Z,4.99
2024-01-09T14:38:51.165Z,4.99
2024-01-09T14:41:19.791Z,4.97
2024-01-09T14:43:49.678Z,4.97
2024-01-09T14:46:19.122Z,4.99
2024-01-09T14:48:47.749Z,4.98
2024-01-09T14:51:16.541Z,4.98
2024-01-09T14:53:45.433Z,4.97
2024-01-09T14:56:19.090Z,4.98
2024-01-09T14:58:49.046Z,4.98
2024-01-09T15:01:17.751Z,4.97
2024-01-09T15:03:47.180Z,4.98
2024-01-09T15:06:16.034Z,4.98
2024-01-09T15:08:48.396Z,4.97
2024-01-09T15:11:17.494Z,4.96
2024-01-09T15:13:50.743Z,4.95
2024-01-09T15:16:19.354Z,4.93
2024-01-09T15:18:51.303Z,4.91
2024-01-09T15:21:19.888Z,4.89
2024-01-09T15:23:50.453Z,4.89
2024-01-09T15:26:20.084Z,4.88
2024-01-09T15:28:49.959Z,4.89
2024-01-09T15:31:22.064Z,4.89
2024-01-09T15:33:53.319Z,4.88
2024-01-09T15:36:21.751Z,4.90
2024-01-09T15:38:50.387Z,4.88
2024-01-09T15:41:21.549Z,4.86
2024-01-09T15:43:51.579Z,4.84
2024-01-09T15:46:25.106Z,4.83
2024-01-09T15:48:54.914Z,4.83
2024-01-09T15:51:24.117Z,4.81
2024-01-09T15:53:52.690Z,4.78
2024-01-09T15:56:21.915Z,4.78
2024-01-09T15:58:52.678Z,4.76
2024-01-09T16:01:21.839Z,4.74
2024-01-09T16:03:54.852Z,4.74
2024-01-09T16:06:24.195Z,4.73
2024-01-09T16:08:53.184Z,4.73
2024-01-09T16:11:22.188Z,4.70
2024-01-09T16:13:52.357Z,4.69
2024-01-09T16:16:23.492Z,4.69
2024-01-09T16:18:54.759Z,4.68
2024-01-09T16:21:23.230Z,4.66
2024-01-09T16:23:52.271Z,4.68
2024-01-09T16:26:20.702Z,4.70
2024-01-09T16:28:49.160Z,4.70
2024-01-09T16:31:20.419Z,4.70
2024-01-09T16:33:49.197Z,4.70
2024-01-09T16:36:18.042Z,4.69
2024-01-09T16:38:46.541Z,4.71
2024-01-09T16:41:15.598Z,4.72
2024-01-09T16:43:44.117Z,4.72
2024-01-09T16:46:13.449Z,4.72
2024-01-09T16:48:48.883Z,4.72
2024-01-09T16:51:21.482Z,4.72
2024-01-09T16:53:51.085Z,4.72
2024-01-09T16:56:24.368Z,4.71
2024-01-09T16:58:54.165Z,4.71
2024-01-09T17:01:23.918Z,4.71
2024-01-09T17:03:54.139Z,4.68
2024-01-09T17:06:24.226Z,4.68
2024-01-09T17:08:53.735Z,4.68
2024-01-09T17:11:22.707Z,4.68
2024-01-09T17:13:53.540Z,4.69
2024-01-09T17:16:23.162Z,4.68
2024-01-09T17:18:53.195Z,4.68
2024-01-09T17:21:21.804Z,4.66
2024-01-09T17:23:50.672Z,4.66
2024-01-09T17:26:19.534Z,4.65
2024-01-09T17:28:48.105Z,4.66
2024-01-09T17:31:16.521Z,4.68
2024-01-09T17:33:45.001Z,4.70
2024-01-09T17:36:15.124Z,4.68
2024-01-09T17:38:45.618Z,4.66
2024-01-09T17:41:14.596Z,4.65
2024-01-09T17:43:43.177Z,4.62
2024-01-09T17:46:11.843Z,4.63
2024-01-09T17:48:40.474Z,4.63
2024-01-09T17:51:09.197Z,4.61
2024-01-09T17:53:39.106Z,4.61
2024-01-09T17:56:08.393Z,4.60
2024-01-09T17:58:39.123Z,4.58
2024-01-09T18:01:08.551Z,4.58
2024-01-09T18:03:37.054Z,4.58
2024-01-09T18:06:05.893Z,4.58
2024-01-09T18:08:36.339Z,4.58
2024-01-09T18:11:06.724Z,4.57
2024-01-09T18:13:35.203Z,4.58
2024-01-09T18:16:04.450Z,4.58
2024-01-09T18:18:34.807Z,4.59
2024-01-09T18:21:06.199Z,4.57
2024-01-09T18:23:35.380Z,4.54
2024-01-09T18:26:11.062Z,4.54
2024-01-09T18:28:43.740Z,4.53
2024-01-09T18:31:13.909Z,4.52
2024-01-09T18:33:45.104Z,4.54
2024-01-09T18:36:13.616Z,4.51
2024-01-09T18:38:42.100Z,4.51
2024-01-09T18:41:12.179Z,4.53
2024-01-09T18:43:41.293Z,4.54
2024-01-09T18:46:10.129Z,4.54
2024-01-09T18:48:38.719Z,4.55
2024-01-09T18:51:07.548Z,4.53
2024-01-09T18:53:36.498Z,4.49
2024-01-09T18:56:05.197Z,4.48
2024-01-09T18:58:35.213Z,4.45
2024-01-09T19:01:05.208Z,4.43
2024-01-09T19:03:34.428Z,4.44
2024-01-09T19:06:04.414Z,4.43
2024-01-09T19:08:32.880Z,4.43
2024-01-09T19:11:02.516Z,4.42
2024-01-09T19:13:31.328Z,4.43
2024-01-09T19:16:01.982Z,4.41
2024-01-09T19:18:30.660Z,4.40
2024-01-09T19:20:59.145Z,4.39
2024-01-09T19:23:28.210Z,4.39
2024-01-09T19:25:58.396Z,4.39
2024-01-09T19:28:27.115Z,4.42
2024-01-09T19:30:55.746Z,4.43
2024-01-09T19:33:25.797Z,4.45
2024-01-09T19:35:54.330Z,4.47
2024-01-09T19:38:23.105Z,4.46
2024-01-09T19:40:51.948Z,4.47
2024-01-09T19:43:25.808Z,4.46
2024-01-09T19:45:54.548Z,4.47
2024-01-09T19:48:23.112Z,4.47
2024-01-09T19:50:52.987Z,4.48
2024-01-09T19:53:21.735Z,4.47
2024-01-09T19:55:50.281Z,4.47
2024-01-09T19:58:20.154Z,4.43
2024-01-09T20:00:48.632Z,4.40
2024-01-09T20:03:17.167Z,4.36
2024-01-09T20:05:45.756Z,4.34
2024-01-09T20:08:15.717Z,4.32
2024-01-09T20:10:44.279Z,4.30
2024-01-09T20:13:13.298Z,4.30
2024-01-09T20:15:41.726Z,4.26
2024-01-09T20:18:10.470Z,4.25
2024-01-09T20:20:38.962Z,4.24
2024-01-09T20:23:08.498Z,4.22
2024-01-09T20:25:39.794Z,4.22
2024-01-09T20:28:08.603Z,4.21
2024-01-09T20:30:37.189Z,4.23
2024-01-09T20:33:06.444Z,4.20
2024-01-09T20:35:35.654Z,4.22
2024-01-09T20:38:05.806Z,4.23
2024-01-09T20:40:34.830Z,4.21
2024-01-09T20:43:04.997Z,4.19
2024-01-09T20:45:33.754Z,4.17
2024-01-09T20:48:03.666Z,4.19
2024-01-09T20:50:33.378Z,4.20
2024-01-09T20:53:02.087Z,4.21
2024-01-09T20:55:31.234Z,4.21
2024-01-09T20:57:59.755Z,4.23
2024-01-09T21:00:29.719Z,4.20
2024-01-09T21:02:58.344Z,4.19
2024-01-09T21:05:27.465Z,4.17
2024-01-09T21:07:57.565Z,4.17
2024-01-09T21:10:26.186Z,4.17
2024-01-09T21:12:54.757Z,4.15
2024-01-09T21:15:23.928Z,4.13
2024-01-09T21:17:54.830Z,4.11
2024-01-09T21:20:23.508Z,4.12
2024-01-09T21:22:52.526Z,4.11
2024-01-09T21:25:21.444Z,4.10
2024-01-09T21:27:50.634Z,4.07
2024-01-09T21:30:19.299Z,4.06
2024-01-09T21:32:48.641Z,4.04
2024-01-09T21:35:18.576Z,4.05
2024-01-09T21:37:48.436Z,4.03
2024-01-09T21:40:17.021Z,4.01
2024-01-09T21:42:46.518Z,4.00
2024-01-09T21:45:33.304Z,4.00
2024-01-09T21:48:22.208Z,3.98
2024-01-09T21:51:12.304Z,3.97
2024-01-09T21:53:40.685Z,3.98
2024-01-09T21:56:09.380Z,3.97
2024-01-09T21:58:37.779Z,3.96
2024-01-09T22:01:06.470Z,3.97
2024-01-09T22:03:35.068Z,3.97
2024-01-09T22:06:04.061Z,3.96
2024-01-09T22:08:34.001Z,3.98
2024-01-09T22:11:04.729Z,3.97
2024-01-09T22:13:34.029Z,3.94
2024-01-09T22:16:02.471Z,3.92
2024-01-09T22:18:31.036Z,3.92
2024-01-09T22:20:59.773Z,3.88
2024-01-09T22:23:28.236Z,3.88
2024-01-09T22:25:58.166Z,3.86
2024-01-09T22:28:26.737Z,3.88
2024-01-09T22:30:56.013Z,3.91
2024-01-09T22:33:24.822Z,3.89
2024-01-09T22:35:53.370Z,3.88
2024-01-09T22:38:21.946Z,3.90
2024-01-09T22:40:50.535Z,3.91
2024-01-09T22:43:20.373Z,3.92
2024-01-09T22:45:49.320Z,3.93
2024-01-09T22:48:17.761Z,3.93
2024-01-09T22:50:46.504Z,3.93
2024-01-09T22:53:15.691Z,3.93
2024-01-09T22:55:45.553Z,3.91
2024-01-09T22:58:14.226Z,3.90
2024-01-09T23:00:44.190Z,3.91
2024-01-09T23:03:12.754Z,3.89
2024-01-09T23:05:41.475Z,3.92
2024-01-09T23:08:10.177Z,3.92
2024-01-09T23:10:38.727Z,3.93
2024-01-09T23:13:07.140Z,3.92
2024-01-09T23:15:36.221Z,3.90
2024-01-09T23:18:07.345Z,3.92
2024-01-09T23:20:36.337Z,3.88
2024-01-09T23:23:06.207Z,3.90
2024-01-09T23:25:34.832Z,3.87
2024-01-09T23:28:03.476Z,3.91
2024-01-09T23:30:32.085Z,3.90
2024-01-09T23:33:01.080Z,3.92
2024-01-09T23:35:32.086Z,3.93
2024-01-09T23:38:00.690Z,3.93
2024-01-09T23:40:31.660Z,3.93
2024-01-09T23:43:00.550Z,3.93
2024-01-09T23:45:29.009Z,3.94
2024-01-09T23:47:57.585Z,3.94
2024-01-09T23:50:26.240Z,3.91
2024-01-09T23:52:56.127Z,3.92
2024-01-09T23:55:24.903Z,3.90
2024-01-09T23:57:53.354Z,3.87
